Current | Forecast
Updated: 5:00 PM JST on April 27, 2018
Observed at Niigata Airport, Japan
Temperature 61°F
Humidity 77%
Dew Point 54°F
Wind West at 15 mph
Pressure 29.74 in (Falling)
Conditions Mostly Cloudy
Visibility 6.2 miles
UV 1 out of 16
Clouds (FEW) : 3000 ft
Mostly Cloudy (BKN) : 13000 ft
Yesterday's Maximum 63°F
Yesterday's Minimum 52°F approx.
Yesterday's Heating Degree Days 8 approx.
Sunrise4:54 AM JST
Sunset6:30 PM JST
Moon Rise3:34 PM JST
Moon Set3:31 AM JST
Moon PhaseMoon Phase
Waxing Gibbous
Raw METARMETAR RJSN 270800Z 27013KT 9999 FEW030 BKN130 BKN/// 16/12 Q1007


Monday
. High: 73° F.
Tuesday
. High: 73° F.
Wednesday
. High: 62° F.
Thursday
. High: 66° F.
Friday
. High: 68° F.
Saturday
. High: 66° F.
Sunday
. High: 66° F.
Monday
. High: 62° F.

Units: English | Metric

Find the Weather for any City, State or Zipcode, or Country:

U.S. State List | Severe Weather | Tropical Storms | Ski Conditions
United States | Canada | Central America | South America | Asia | Europe | Australia | Africa | Islands

Weather Underground

© Copyright 2018
The Weather Company, LLC